Station Historical Data
Daily Summary for October 14, 2017 Units:  English    Metric   Both
« Previous Day
Next Day »
Daily Weekly Monthly Yearly Custom
  High: Low: Average:
Temperature: 72.7 °F 53.3 °F 62.4 °F
Dew Point: 60.9 °F 50.7 °F 56.6 °F
Humidity: 93% 65% 82%
Wind Speed: 10.0mph 0.0mph 1.4mph
Wind Gust: 13.0mph - -
Wind- - SSE
Pressure: 30.23 in 30.01 in -
Precipitation: 0.00 in    
Historical Graphs
 
 
Tabular Data for October 14, 2017
Time Temperature Dew Point Pressure Wind Wind Speed Wind Gust Humidity Rainfall Rate (Hourly)
00:00 59.3 °F 53.8 °F 30.19 in Calm     82% 0.00 in
00:05 59.3 °F 54.1 °F 30.19 in Calm     83% 0.00 in
00:10 59.2 °F 54.0 °F 30.19 in Calm     83% 0.00 in
00:15 59.2 °F 54.0 °F 30.19 in Calm     83% 0.00 in
00:20 59.0 °F 53.8 °F 30.19 in Calm     83% 0.00 in
00:25 58.9 °F 54.1 °F 30.19 in Calm     84% 0.00 in
00:30 58.9 °F 54.1 °F 30.19 in Calm     84% 0.00 in
00:35 59.0 °F 54.2 °F 30.18 in Calm     84% 0.00 in
00:40 59.1 °F 54.3 °F 30.18 in SSW 1.0 mph 6.0 mph 84% 0.00 in
00:45 59.2 °F 54.0 °F 30.19 in SW 2.0 mph 6.0 mph 83% 0.00 in
00:50 59.1 °F 53.9 °F 30.18 in SW 2.0 mph 6.0 mph 83% 0.00 in
00:55 59.0 °F 53.8 °F 30.18 in Calm   6.0 mph 83% 0.00 in
01:00 58.9 °F 53.7 °F 30.19 in SW 2.0 mph 5.0 mph 83% 0.00 in
01:05 58.7 °F 53.5 °F 30.19 in SW 2.0 mph 5.0 mph 83% 0.00 in
01:10 58.6 °F 53.5 °F 30.19 in SW 2.0 mph 5.0 mph 83% 0.00 in
01:15 58.4 °F 53.3 °F 30.19 in Calm   7.0 mph 83% 0.00 in
01:20 58.3 °F 53.5 °F 30.18 in SSW 1.0 mph 7.0 mph 84% 0.00 in
01:25 58.1 °F 53.3 °F 30.18 in Calm   4.0 mph 84% 0.00 in
01:30 57.9 °F 53.1 °F 30.19 in Calm   4.0 mph 84% 0.00 in
01:35 57.7 °F 52.9 °F 30.18 in Calm   4.0 mph 84% 0.00 in
01:40 57.6 °F 53.1 °F 30.18 in Calm   4.0 mph 85% 0.00 in
01:45 57.5 °F 53.0 °F 30.18 in SSW 1.0 mph 6.0 mph 85% 0.00 in
01:50 57.4 °F 52.9 °F 30.18 in SSW 1.0 mph 6.0 mph 85% 0.00 in
01:55 57.3 °F 52.8 °F 30.18 in SSW 1.0 mph 4.0 mph 85% 0.00 in
02:00 57.2 °F 53.0 °F 30.18 in SSW 2.0 mph 3.0 mph 86% 0.00 in
02:05 57.1 °F 53.0 °F 30.18 in Calm   3.0 mph 86% 0.00 in
02:10 57.0 °F 52.9 °F 30.18 in SSW 1.0 mph 3.0 mph 86% 0.00 in
02:15 57.0 °F 52.9 °F 30.18 in Calm   3.0 mph 86% 0.00 in
02:20 56.9 °F 52.8 °F 30.18 in Calm   3.0 mph 86% 0.00 in
02:25 56.8 °F 52.7 °F 30.18 in Calm     86% 0.00 in
02:30 56.6 °F 52.5 °F 30.18 in Calm     86% 0.00 in
02:35 56.3 °F 52.2 °F 30.18 in Calm     86% 0.00 in
02:40 56.1 °F 52.3 °F 30.18 in Calm     87% 0.00 in
02:45 55.9 °F 52.1 °F 30.18 in Calm     87% 0.00 in
02:50 55.9 °F 52.1 °F 30.18 in Calm     87% 0.00 in
02:55 55.7 °F 52.2 °F 30.18 in Calm     88% 0.00 in
03:00 55.7 °F 52.2 °F 30.18 in Calm     88% 0.00 in
03:05 55.7 °F 52.2 °F 30.18 in Calm     88% 0.00 in
03:10 55.7 °F 52.2 °F 30.18 in Calm     88% 0.00 in
03:15 55.6 °F 52.4 °F 30.18 in Calm     89% 0.00 in
03:20 55.6 °F 52.4 °F 30.18 in Calm     89% 0.00 in
03:25 55.7 °F 52.5 °F 30.18 in Calm     89% 0.00 in
03:30 55.5 °F 52.3 °F 30.18 in Calm     89% 0.00 in
03:35 55.3 °F 51.8 °F 30.18 in Calm     88% 0.00 in
03:40 55.2 °F 52.0 °F 30.18 in Calm     89% 0.00 in
03:45 55.0 °F 51.8 °F 30.18 in Calm     89% 0.00 in
03:50 54.8 °F 51.6 °F 30.18 in Calm     89% 0.00 in
03:55 54.7 °F 51.5 °F 30.18 in Calm     89% 0.00 in
04:00 54.7 °F 51.8 °F 30.18 in Calm     90% 0.00 in
04:05 54.7 °F 51.8 °F 30.18 in Calm     90% 0.00 in
04:10 54.6 °F 51.4 °F 30.18 in Calm     89% 0.00 in
04:15 54.3 °F 51.1 °F 30.18 in Calm     89% 0.00 in
04:20 54.0 °F 51.1 °F 30.19 in Calm     90% 0.00 in
04:25 53.9 °F 51.0 °F 30.19 in Calm     90% 0.00 in
04:30 53.8 °F 50.9 °F 30.18 in Calm     90% 0.00 in
04:35 53.8 °F 50.9 °F 30.18 in Calm     90% 0.00 in
04:40 53.9 °F 51.0 °F 30.18 in Calm     90% 0.00 in
04:45 54.1 °F 51.5 °F 30.18 in Calm     91% 0.00 in
04:50 54.1 °F 51.2 °F 30.18 in Calm     90% 0.00 in
05:00 54.0 °F 51.4 °F 30.18 in Calm     91% 0.00 in
05:05 53.8 °F 51.2 °F 30.18 in Calm     91% 0.00 in
05:10 53.8 °F 51.2 °F 30.18 in Calm     91% 0.00 in
05:15 53.9 °F 51.3 °F 30.19 in Calm     91% 0.00 in
05:20 54.0 °F 51.4 °F 30.19 in Calm     91% 0.00 in
05:25 54.1 °F 51.5 °F 30.19 in Calm     91% 0.00 in
05:30 53.9 °F 51.3 °F 30.19 in Calm     91% 0.00 in
05:35 53.8 °F 51.2 °F 30.19 in Calm     91% 0.00 in
05:40 53.6 °F 51.0 °F 30.19 in Calm     91% 0.00 in
05:45 53.4 °F 50.8 °F 30.19 in Calm     91% 0.00 in
05:50 53.3 °F 50.7 °F 30.19 in Calm     91% 0.00 in
05:55 53.4 °F 50.8 °F 30.19 in Calm     91% 0.00 in
06:00 53.5 °F 50.9 °F 30.19 in Calm     91% 0.00 in
06:05 53.8 °F 51.5 °F 30.19 in Calm     92% 0.00 in
06:10 54.1 °F 51.8 °F 30.19 in Calm     92% 0.00 in
06:15 54.4 °F 52.1 °F 30.19 in Calm     92% 0.00 in
06:20 54.9 °F 52.6 °F 30.19 in Calm     92% 0.00 in
06:25 55.1 °F 52.8 °F 30.19 in Calm     92% 0.00 in
06:30 55.6 °F 53.3 °F 30.19 in Calm     92% 0.00 in
06:35 56.0 °F 53.7 °F 30.19 in Calm     92% 0.00 in
06:40 56.3 °F 54.0 °F 30.19 in Calm     92% 0.00 in
06:45 56.4 °F 54.1 °F 30.19 in Calm     92% 0.00 in
06:50 56.6 °F 54.3 °F 30.19 in Calm     92% 0.00 in
06:55 56.7 °F 54.4 °F 30.19 in Calm     92% 0.00 in
07:00 56.8 °F 54.5 °F 30.19 in Calm     92% 0.00 in
07:05 56.9 °F 54.6 °F 30.20 in Calm     92% 0.00 in
07:10 56.7 °F 54.4 °F 30.20 in Calm     92% 0.00 in
07:15 56.5 °F 54.2 °F 30.20 in Calm     92% 0.00 in
07:20 56.2 °F 53.6 °F 30.20 in Calm     91% 0.00 in
07:25 56.0 °F 53.4 °F 30.20 in Calm     91% 0.00 in
07:30 55.9 °F 53.6 °F 30.20 in Calm     92% 0.00 in
07:35 55.7 °F 53.1 °F 30.20 in Calm     91% 0.00 in
07:40 55.7 °F 53.4 °F 30.20 in Calm     92% 0.00 in
07:45 55.7 °F 53.1 °F 30.21 in Calm     91% 0.00 in
07:50 55.7 °F 53.4 °F 30.21 in Calm     92% 0.00 in
07:55 55.9 °F 53.6 °F 30.21 in Calm     92% 0.00 in
08:00 56.0 °F 53.7 °F 30.21 in Calm     92% 0.00 in
08:05 56.2 °F 53.9 °F 30.21 in Calm     92% 0.00 in
08:10 56.3 °F 54.0 °F 30.21 in Calm     92% 0.00 in
08:15 56.3 °F 54.0 °F 30.22 in Calm     92% 0.00 in
08:20 56.3 °F 54.0 °F 30.22 in Calm     92% 0.00 in
08:25 56.7 °F 54.4 °F 30.22 in Calm     92% 0.00 in
08:30 57.3 °F 55.0 °F 30.22 in Calm     92% 0.00 in
08:35 58.1 °F 56.1 °F 30.22 in Calm     93% 0.00 in
08:40 58.9 °F 56.6 °F 30.22 in Calm     92% 0.00 in
08:45 59.3 °F 57.0 °F 30.22 in Calm     92% 0.00 in
08:50 59.6 °F 57.0 °F 30.22 in Calm     91% 0.00 in
08:55 59.9 °F 57.3 °F 30.22 in Calm     91% 0.00 in
09:00 60.1 °F 57.2 °F 30.22 in Calm     90% 0.00 in
09:05 60.3 °F 57.4 °F 30.23 in Calm     90% 0.00 in
09:10 60.5 °F 57.2 °F 30.23 in Calm     89% 0.00 in
09:15 61.0 °F 57.7 °F 30.22 in Calm     89% 0.00 in
09:20 61.6 °F 58.0 °F 30.22 in Calm     88% 0.00 in
09:25 61.8 °F 57.9 °F 30.23 in SW 1.0 mph 3.0 mph 87% 0.00 in
09:30 62.0 °F 57.8 °F 30.23 in SW 1.0 mph 5.0 mph 86% 0.00 in
09:35 62.0 °F 57.4 °F 30.23 in SW 1.0 mph 5.0 mph 85% 0.00 in
09:40 62.2 °F 57.6 °F 30.23 in SW 1.0 mph 4.0 mph 85% 0.00 in
09:45 62.5 °F 57.9 °F 30.23 in Calm   3.0 mph 85% 0.00 in
09:50 63.0 °F 58.1 °F 30.22 in Calm   4.0 mph 84% 0.00 in
09:55 63.5 °F 58.6 °F 30.23 in SW 1.0 mph 5.0 mph 84% 0.00 in
10:00 63.9 °F 58.6 °F 30.23 in SW 1.0 mph 5.0 mph 83% 0.00 in
10:05 63.8 °F 57.9 °F 30.23 in SW 2.0 mph 7.0 mph 81% 0.00 in
10:10 63.8 °F 57.9 °F 30.22 in Calm   5.0 mph 81% 0.00 in
10:15 63.9 °F 58.3 °F 30.22 in WSW 3.0 mph 5.0 mph 82% 0.00 in
10:20 64.0 °F 58.1 °F 30.23 in SW 2.0 mph 5.0 mph 81% 0.00 in
10:25 64.2 °F 58.2 °F 30.22 in SW 2.0 mph 6.0 mph 81% 0.00 in
10:30 64.7 °F 58.7 °F 30.22 in SW 3.0 mph 7.0 mph 81% 0.00 in
10:35 64.9 °F 58.2 °F 30.22 in SW 3.0 mph 8.0 mph 79% 0.00 in
10:40 65.0 °F 58.3 °F 30.22 in SW 3.0 mph 8.0 mph 79% 0.00 in
10:45 65.1 °F 58.4 °F 30.22 in WSW 3.0 mph 6.0 mph 79% 0.00 in
10:50 65.4 °F 58.7 °F 30.22 in WSW 2.0 mph 5.0 mph 79% 0.00 in
10:55 65.5 °F 58.1 °F 30.22 in West 2.0 mph 6.0 mph 77% 0.00 in
11:00 65.7 °F 58.7 °F 30.22 in WSW 2.0 mph 6.0 mph 78% 0.00 in
11:05 65.7 °F 58.3 °F 30.22 in SW 4.0 mph 9.0 mph 77% 0.00 in
11:10 66.5 °F 59.4 °F 30.22 in SW 6.0 mph 6.0 mph 78% 0.00 in
11:15 66.9 °F 58.7 °F 30.21 in SW 5.0 mph 8.0 mph 75% 0.00 in
11:20 66.5 °F 58.7 °F 30.21 in WSW 2.0 mph 6.0 mph 76% 0.00 in
11:25 66.2 °F 58.8 °F 30.21 in West 3.0 mph 7.0 mph 77% 0.00 in
11:30 66.4 °F 59.0 °F 30.21 in WSW 2.0 mph 7.0 mph 77% 0.00 in
11:35 66.8 °F 59.7 °F 30.21 in WSW 3.0 mph 7.0 mph 78% 0.00 in
11:40 66.8 °F 58.6 °F 30.21 in SW 2.0 mph 7.0 mph 75% 0.00 in
11:45 66.6 °F 59.2 °F 30.21 in WSW 4.0 mph 7.0 mph 77% 0.00 in
11:50 66.8 °F 59.4 °F 30.20 in SW 1.0 mph 7.0 mph 77% 0.00 in
11:55 67.6 °F 59.8 °F 30.20 in SSE 2.0 mph 5.0 mph 76% 0.00 in
12:00 68.2 °F 60.0 °F 30.20 in WSW 3.0 mph 6.0 mph 75% 0.00 in
12:05 67.7 °F 59.1 °F 30.20 in West 4.0 mph 7.0 mph 74% 0.00 in
12:10 67.7 °F 59.1 °F 30.20 in WSW 2.0 mph 9.0 mph 74% 0.00 in
12:15 67.6 °F 59.4 °F 30.20 in SSW 5.0 mph 8.0 mph 75% 0.00 in
12:20 68.0 °F 59.4 °F 30.19 in WSW 2.0 mph 7.0 mph 74% 0.00 in
12:25 68.4 °F 59.4 °F 30.19 in SW 3.0 mph 7.0 mph 73% 0.00 in
12:30 68.5 °F 59.5 °F 30.20 in SW 3.0 mph 7.0 mph 73% 0.00 in
12:35 68.7 °F 59.7 °F 30.19 in SW 2.0 mph 6.0 mph 73% 0.00 in
12:40 68.4 °F 59.8 °F 30.19 in SW 2.0 mph 7.0 mph 74% 0.00 in
12:45 68.5 °F 59.9 °F 30.19 in SW 3.0 mph 7.0 mph 74% 0.00 in
12:50 68.3 °F 59.3 °F 30.19 in West 1.0 mph 7.0 mph 73% 0.00 in
12:55 68.4 °F 59.8 °F 30.18 in Calm   5.0 mph 74% 0.00 in
13:00 68.8 °F 59.8 °F 30.18 in West 2.0 mph 5.0 mph 73% 0.00 in
13:05 69.2 °F 60.2 °F 30.18 in WNW 2.0 mph 7.0 mph 73% 0.00 in
13:10 70.0 °F 60.2 °F 30.18 in West 2.0 mph 6.0 mph 71% 0.00 in
13:15 69.3 °F 59.9 °F 30.18 in WSW 1.0 mph 5.0 mph 72% 0.00 in
13:20 68.9 °F 59.1 °F 30.18 in WSW 3.0 mph 6.0 mph 71% 0.00 in
13:25 68.8 °F 59.4 °F 30.17 in West 2.0 mph 5.0 mph 72% 0.00 in
13:30 69.6 °F 59.8 °F 30.17 in West 3.0 mph 6.0 mph 71% 0.00 in
13:35 69.2 °F 59.4 °F 30.17 in West 3.0 mph 7.0 mph 71% 0.00 in
13:40 68.8 °F 59.0 °F 30.17 in West 2.0 mph 7.0 mph 71% 0.00 in
13:45 68.7 °F 59.3 °F 30.16 in West 2.0 mph 5.0 mph 72% 0.00 in
13:50 68.8 °F 59.8 °F 30.16 in WNW 2.0 mph 6.0 mph 73% 0.00 in
13:55 69.1 °F 59.7 °F 30.16 in West 5.0 mph 6.0 mph 72% 0.00 in
14:00 69.0 °F 59.6 °F 30.15 in WNW 4.0 mph 7.0 mph 72% 0.00 in
14:05 68.9 °F 59.5 °F 30.15 in WNW 4.0 mph 7.0 mph 72% 0.00 in
14:10 68.5 °F 59.1 °F 30.15 in WNW 3.0 mph 6.0 mph 72% 0.00 in
14:15 69.0 °F 59.6 °F 30.14 in WNW 1.0 mph 5.0 mph 72% 0.00 in
14:20 69.7 °F 59.9 °F 30.14 in West 2.0 mph 5.0 mph 71% 0.00 in
14:25 69.8 °F 60.0 °F 30.13 in West 1.0 mph 4.0 mph 71% 0.00 in
14:30 70.1 °F 59.5 °F 30.12 in Calm   3.0 mph 69% 0.00 in
14:35 71.0 °F 60.3 °F 30.12 in Calm   3.0 mph 69% 0.00 in
14:40 71.4 °F 59.9 °F 30.12 in South 1.0 mph 5.0 mph 67% 0.00 in
14:45 71.5 °F 60.8 °F 30.11 in SSW 1.0 mph 5.0 mph 69% 0.00 in
14:50 71.9 °F 59.9 °F 30.12 in Calm   4.0 mph 66% 0.00 in
14:55 71.8 °F 59.8 °F 30.12 in Calm   3.0 mph 66% 0.00 in
15:00 72.4 °F 60.8 °F 30.12 in West 1.0 mph 4.0 mph 67% 0.00 in
15:05 72.0 °F 60.4 °F 30.12 in WSW 1.0 mph 4.0 mph 67% 0.00 in
15:10 72.5 °F 60.9 °F 30.12 in WNW 1.0 mph 4.0 mph 67% 0.00 in
15:15 72.4 °F 60.8 °F 30.11 in WNW 1.0 mph 4.0 mph 67% 0.00 in
15:20 72.7 °F 60.7 °F 30.11 in SW 1.0 mph 5.0 mph 66% 0.00 in
15:25 71.5 °F 59.1 °F 30.12 in Calm   5.0 mph 65% 0.00 in
15:30 70.9 °F 59.8 °F 30.12 in SSW 1.0 mph 3.0 mph 68% 0.00 in
15:35 70.9 °F 59.4 °F 30.12 in SSW 1.0 mph 2.0 mph 67% 0.00 in
15:40 71.2 °F 60.1 °F 30.12 in WSW 1.0 mph 3.0 mph 68% 0.00 in
15:45 71.2 °F 60.1 °F 30.11 in NW 1.0 mph 4.0 mph 68% 0.00 in
15:50 71.0 °F 59.1 °F 30.11 in Calm   1.0 mph 66% 0.00 in
15:55 71.1 °F 59.6 °F 30.11 in Calm   3.0 mph 67% 0.00 in
16:00 71.3 °F 60.2 °F 30.10 in Calm     68% 0.00 in
16:05 71.2 °F 59.3 °F 30.11 in Calm     66% 0.00 in
16:10 71.3 °F 59.4 °F 30.11 in Calm     66% 0.00 in
16:15 71.0 °F 59.5 °F 30.11 in NW 1.0 mph 4.0 mph 67% 0.00 in
16:20 70.8 °F 59.3 °F 30.11 in NW 1.0 mph 4.0 mph 67% 0.00 in
16:25 71.0 °F 59.1 °F 30.11 in Calm   2.0 mph 66% 0.00 in
16:30 71.1 °F 59.2 °F 30.12 in Calm     66% 0.00 in
16:35 70.9 °F 59.4 °F 30.12 in Calm     67% 0.00 in
16:40 70.8 °F 59.3 °F 30.12 in Calm     67% 0.00 in
16:45 70.6 °F 59.1 °F 30.12 in Calm     67% 0.00 in
16:50 70.5 °F 59.0 °F 30.12 in Calm     67% 0.00 in
16:55 70.3 °F 58.8 °F 30.12 in Calm     67% 0.00 in
17:00 70.3 °F 59.6 °F 30.12 in Calm     69% 0.00 in
17:05 70.1 °F 59.5 °F 30.11 in NNW 3.0 mph 6.0 mph 69% 0.00 in
17:10 70.0 °F 59.4 °F 30.11 in Calm   6.0 mph 69% 0.00 in
17:15 69.9 °F 59.7 °F 30.12 in North 1.0 mph 5.0 mph 70% 0.00 in
17:20 69.6 °F 59.4 °F 30.11 in North 1.0 mph 5.0 mph 70% 0.00 in
17:25 69.5 °F 59.7 °F 30.11 in North 1.0 mph 4.0 mph 71% 0.00 in
17:30 69.5 °F 59.7 °F 30.11 in NNE 1.0 mph 4.0 mph 71% 0.00 in
17:35 69.5 °F 59.7 °F 30.10 in NNE 2.0 mph 4.0 mph 71% 0.00 in
17:40 69.4 °F 59.6 °F 30.10 in NNE 1.0 mph 3.0 mph 71% 0.00 in
17:45 69.0 °F 59.2 °F 30.10 in Calm   3.0 mph 71% 0.00 in
17:50 68.7 °F 59.3 °F 30.10 in NNE 1.0 mph 5.0 mph 72% 0.00 in
17:55 68.4 °F 59.0 °F 30.11 in Calm   3.0 mph 72% 0.00 in
18:00 68.2 °F 59.2 °F 30.10 in ENE 1.0 mph 4.0 mph 73% 0.00 in
18:05 68.1 °F 59.5 °F 30.11 in NE 2.0 mph 4.0 mph 74% 0.00 in
18:10 67.9 °F 59.3 °F 30.10 in NE 2.0 mph 6.0 mph 74% 0.00 in
18:15 67.7 °F 59.5 °F 30.10 in NE 3.0 mph 8.0 mph 75% 0.00 in
18:20 67.4 °F 59.9 °F 30.10 in NE 3.0 mph 9.0 mph 77% 0.00 in
18:25 67.1 °F 59.6 °F 30.10 in NE 3.0 mph 9.0 mph 77% 0.00 in
18:30 66.7 °F 59.6 °F 30.11 in NNE 2.0 mph 5.0 mph 78% 0.00 in
18:35 66.4 °F 59.7 °F 30.11 in NE 3.0 mph 10.0 mph 79% 0.00 in
18:40 65.9 °F 59.2 °F 30.11 in NE 4.0 mph 10.0 mph 79% 0.00 in
18:45 65.5 °F 59.2 °F 30.11 in NE 2.0 mph 9.0 mph 80% 0.00 in
18:50 65.2 °F 59.2 °F 30.11 in NE 4.0 mph 11.0 mph 81% 0.00 in
18:55 64.9 °F 58.9 °F 30.11 in NE 2.0 mph 5.0 mph 81% 0.00 in
19:00 64.7 °F 59.1 °F 30.11 in ENE 3.0 mph 7.0 mph 82% 0.00 in
19:05 64.5 °F 58.9 °F 30.11 in NE 7.0 mph 7.0 mph 82% 0.00 in
19:10 64.3 °F 59.0 °F 30.11 in ENE 3.0 mph 10.0 mph 83% 0.00 in
19:15 64.2 °F 58.9 °F 30.11 in North 2.0 mph 8.0 mph 83% 0.00 in
19:20 64.1 °F 58.8 °F 30.11 in NE 2.0 mph 8.0 mph 83% 0.00 in
19:25 63.9 °F 58.6 °F 30.11 in ENE 3.0 mph 6.0 mph 83% 0.00 in
19:30 63.9 °F 58.6 °F 30.12 in NE 3.0 mph 3.0 mph 83% 0.00 in
19:35 63.8 °F 58.9 °F 30.12 in ENE 3.0 mph 5.0 mph 84% 0.00 in
19:40 63.7 °F 58.8 °F 30.12 in ENE 1.0 mph 5.0 mph 84% 0.00 in
19:45 63.5 °F 58.6 °F 30.12 in NE 2.0 mph 5.0 mph 84% 0.00 in
19:50 63.5 °F 58.6 °F 30.11 in NE 2.0 mph 7.0 mph 84% 0.00 in
19:55 63.4 °F 58.5 °F 30.11 in ENE 4.0 mph 8.0 mph 84% 0.00 in
20:00 63.4 °F 58.5 °F 30.11 in ENE 4.0 mph 8.0 mph 84% 0.00 in
20:05 63.3 °F 58.4 °F 30.11 in ENE 3.0 mph 8.0 mph 84% 0.00 in
20:10 63.2 °F 58.3 °F 30.10 in NE 5.0 mph 13.0 mph 84% 0.00 in
20:15 63.2 °F 58.3 °F 30.10 in ENE 5.0 mph 13.0 mph 84% 0.00 in
20:20 63.1 °F 58.2 °F 30.10 in ENE 4.0 mph 9.0 mph 84% 0.00 in
20:25 62.9 °F 58.0 °F 30.10 in NE 2.0 mph 7.0 mph 84% 0.00 in
20:30 62.7 °F 57.8 °F 30.10 in NE 2.0 mph 4.0 mph 84% 0.00 in
20:35 62.6 °F 57.7 °F 30.09 in ENE 4.0 mph 8.0 mph 84% 0.00 in
20:40 62.5 °F 57.6 °F 30.10 in Calm   8.0 mph 84% 0.00 in
20:45 62.4 °F 57.8 °F 30.09 in ENE 3.0 mph 8.0 mph 85% 0.00 in
20:50 62.2 °F 57.6 °F 30.09 in ENE 2.0 mph 7.0 mph 85% 0.00 in
20:55 62.1 °F 57.5 °F 30.09 in ENE 3.0 mph 8.0 mph 85% 0.00 in
20:59 61.9 °F 57.3 °F 30.08 in NE 6.0 mph 10.0 mph 85% 0.00 in
21:04 61.8 °F 57.2 °F 30.09 in Calm   7.0 mph 85% 0.00 in
21:09 61.7 °F 57.5 °F 30.09 in ENE 8.0 mph 8.0 mph 86% 0.00 in
21:15 61.7 °F 57.5 °F 30.09 in Calm   9.0 mph 86% 0.00 in
21:19 61.7 °F 57.5 °F 30.09 in NE 1.0 mph 4.0 mph 86% 0.00 in
21:25 61.7 °F 57.5 °F 30.08 in ENE 2.0 mph 5.0 mph 86% 0.00 in
21:30 61.6 °F 57.4 °F 30.07 in NE 4.0 mph 9.0 mph 86% 0.00 in
21:35 61.6 °F 57.4 °F 30.07 in NE 2.0 mph 9.0 mph 86% 0.00 in
21:40 61.6 °F 57.4 °F 30.07 in ENE 10.0 mph 10.0 mph 86% 0.00 in
21:44 61.6 °F 57.4 °F 30.06 in ENE 4.0 mph 10.0 mph 86% 0.00 in
21:50 61.6 °F 57.4 °F 30.06 in ENE 4.0 mph 10.0 mph 86% 0.00 in
21:55 61.6 °F 57.4 °F 30.05 in East 3.0 mph 9.0 mph 86% 0.00 in
22:00 61.6 °F 57.4 °F 30.05 in East 4.0 mph 9.0 mph 86% 0.00 in
22:05 61.6 °F 57.4 °F 30.05 in ENE 4.0 mph 10.0 mph 86% 0.00 in
22:09 61.6 °F 57.4 °F 30.05 in NE 3.0 mph 9.0 mph 86% 0.00 in
22:15 61.6 °F 57.4 °F 30.05 in ENE 4.0 mph 9.0 mph 86% 0.00 in
22:19 61.6 °F 57.4 °F 30.05 in ENE 4.0 mph 8.0 mph 86% 0.00 in
22:24 61.6 °F 57.4 °F 30.05 in ENE 3.0 mph 9.0 mph 86% 0.00 in
22:30 61.6 °F 57.4 °F 30.05 in ENE 2.0 mph 8.0 mph 86% 0.00 in
22:35 61.6 °F 57.4 °F 30.04 in Calm   8.0 mph 86% 0.00 in
22:40 61.6 °F 57.4 °F 30.04 in ENE 3.0 mph 7.0 mph 86% 0.00 in
22:44 61.6 °F 57.4 °F 30.04 in ENE 2.0 mph 7.0 mph 86% 0.00 in
22:50 61.6 °F 57.4 °F 30.04 in ENE 3.0 mph 8.0 mph 86% 0.00 in
22:55 61.7 °F 57.5 °F 30.04 in ENE 3.0 mph 8.0 mph 86% 0.00 in
23:00 61.7 °F 57.5 °F 30.04 in ENE 3.0 mph 9.0 mph 86% 0.00 in
23:05 61.7 °F 57.5 °F 30.03 in East 3.0 mph 8.0 mph 86% 0.00 in
23:10 61.7 °F 57.5 °F 30.03 in ENE 4.0 mph 9.0 mph 86% 0.00 in
23:14 61.7 °F 57.1 °F 30.03 in ENE 4.0 mph 9.0 mph 85% 0.00 in
23:19 61.7 °F 57.1 °F 30.03 in ENE 3.0 mph 7.0 mph 85% 0.00 in
23:24 61.7 °F 57.1 °F 30.03 in ENE 3.0 mph 6.0 mph 85% 0.00 in
23:30 61.7 °F 57.5 °F 30.02 in East 2.0 mph 8.0 mph 86% 0.00 in
23:34 61.6 °F 57.4 °F 30.02 in East 6.0 mph 7.0 mph 86% 0.00 in
23:40 61.6 °F 57.4 °F 30.01 in East 3.0 mph 8.0 mph 86% 0.00 in
23:45 61.6 °F 57.4 °F 30.01 in ESE 1.0 mph 7.0 mph 86% 0.00 in
23:49 61.5 °F 57.3 °F 30.01 in East 3.0 mph 8.0 mph 86% 0.00 in
23:55 61.4 °F 57.2 °F 30.01 in ENE 3.0 mph 8.0 mph 86% 0.00 in
Buffalo, New York, USA
Compliments of Weather Underground - 2.5 mb